sensor_id;sensor_type;location;lat;lon;timestamp;pressure;altitude;pressure_sealevel;temperature;humidity
10946;BME280;5525;42.648;23.368;2022-08-30T00:00:42;94828.56;;;19.98;100.00
10946;BME280;5525;42.648;23.368;2022-08-30T00:03:29;94815.66;;;19.98;100.00
10946;BME280;5525;42.648;23.368;2022-08-30T00:05:57;94780.50;;;19.64;100.00
10946;BME280;5525;42.648;23.368;2022-08-30T00:08:24;94835.94;;;19.90;100.00
10946;BME280;5525;42.648;23.368;2022-08-30T00:10:51;94830.03;;;19.85;100.00
10946;BME280;5525;42.648;23.368;2022-08-30T00:13:20;94789.50;;;19.64;100.00
10946;BME280;5525;42.648;23.368;2022-08-30T00:15:47;94829.94;;;19.78;100.00
10946;BME280;5525;42.648;23.368;2022-08-30T00:18:15;94805.94;;;19.64;100.00
10946;BME280;5525;42.648;23.368;2022-08-30T00:20:45;94772.41;;;19.38;100.00
10946;BME280;5525;42.648;23.368;2022-08-30T00:23:13;94816.09;;;19.64;100.00
10946;BME280;5525;42.648;23.368;2022-08-30T00:25:41;94827.63;;;19.83;100.00
10946;BME280;5525;42.648;23.368;2022-08-30T00:28:09;94757.94;;;19.37;100.00
10946;BME280;5525;42.648;23.368;2022-08-30T00:30:36;94821.03;;;19.88;100.00
10946;BME280;5525;42.648;23.368;2022-08-30T00:33:04;94818.84;;;19.64;100.00
10946;BME280;5525;42.648;23.368;2022-08-30T00:35:31;94819.19;;;19.59;100.00
10946;BME280;5525;42.648;23.368;2022-08-30T00:37:59;94821.16;;;19.58;100.00
10946;BME280;5525;42.648;23.368;2022-08-30T00:40:27;94810.91;;;19.52;100.00
10946;BME280;5525;42.648;23.368;2022-08-30T00:42:55;94835.22;;;19.57;100.00
10946;BME280;5525;42.648;23.368;2022-08-30T00:45:25;94826.16;;;19.53;100.00
10946;BME280;5525;42.648;23.368;2022-08-30T00:47:53;94839.09;;;19.52;100.00
10946;BME280;5525;42.648;23.368;2022-08-30T00:50:24;94831.25;;;19.54;100.00
10946;BME280;5525;42.648;23.368;2022-08-30T00:52:53;94841.44;;;19.54;100.00
10946;BME280;5525;42.648;23.368;2022-08-30T00:55:23;94842.16;;;19.47;100.00
10946;BME280;5525;42.648;23.368;2022-08-30T00:57:52;94831.59;;;19.46;100.00
10946;BME280;5525;42.648;23.368;2022-08-30T01:00:23;94816.53;;;19.29;100.00
10946;BME280;5525;42.648;23.368;2022-08-30T01:02:50;94835.88;;;19.43;100.00
10946;BME280;5525;42.648;23.368;2022-08-30T01:05:17;94832.66;;;19.38;100.00
10946;BME280;5525;42.648;23.368;2022-08-30T01:07:44;94834.59;;;19.37;100.00
10946;BME280;5525;42.648;23.368;2022-08-30T01:10:14;94832.59;;;19.31;100.00
10946;BME280;5525;42.648;23.368;2022-08-30T01:12:44;94808.13;;;19.15;100.00
10946;BME280;5525;42.648;23.368;2022-08-30T01:15:12;94829.72;;;19.20;100.00
10946;BME280;5525;42.648;23.368;2022-08-30T01:17:41;94808.59;;;18.88;100.00
10946;BME280;5525;42.648;23.368;2022-08-30T01:20:12;94830.56;;;18.95;100.00
10946;BME280;5525;42.648;23.368;2022-08-30T01:22:43;94832.53;;;18.94;100.00
10946;BME280;5525;42.648;23.368;2022-08-30T01:25:15;94834.53;;;18.97;100.00
10946;BME280;5525;42.648;23.368;2022-08-30T01:27:49;94773.47;;;18.60;100.00
10946;BME280;5525;42.648;23.368;2022-08-30T01:30:17;94787.16;;;18.64;100.00
10946;BME280;5525;42.648;23.368;2022-08-30T01:32:46;94812.41;;;18.80;100.00
10946;BME280;5525;42.648;23.368;2022-08-30T01:35:15;94816.00;;;18.87;100.00
10946;BME280;5525;42.648;23.368;2022-08-30T01:37:43;94825.38;;;18.86;100.00
10946;BME280;5525;42.648;23.368;2022-08-30T01:40:12;94819.34;;;18.74;100.00
10946;BME280;5525;42.648;23.368;2022-08-30T01:42:41;94826.88;;;18.80;100.00
10946;BME280;5525;42.648;23.368;2022-08-30T01:45:09;94836.34;;;18.86;100.00
10946;BME280;5525;42.648;23.368;2022-08-30T01:47:36;94820.91;;;18.71;100.00
10946;BME280;5525;42.648;23.368;2022-08-30T01:50:03;94827.28;;;18.82;100.00
10946;BME280;5525;42.648;23.368;2022-08-30T01:52:31;94806.13;;;18.79;100.00
10946;BME280;5525;42.648;23.368;2022-08-30T01:54:58;94791.50;;;18.65;100.00
10946;BME280;5525;42.648;23.368;2022-08-30T01:57:25;94816.25;;;18.75;100.00
10946;BME280;5525;42.648;23.368;2022-08-30T01:59:54;94820.91;;;18.71;100.00
10946;BME280;5525;42.648;23.368;2022-08-30T02:02:24;94826.38;;;18.75;100.00
10946;BME280;5525;42.648;23.368;2022-08-30T02:04:53;94801.56;;;18.57;100.00
10946;BME280;5525;42.648;23.368;2022-08-30T02:07:20;94788.16;;;18.48;100.00
10946;BME280;5525;42.648;23.368;2022-08-30T02:09:48;94819.16;;;18.60;100.00
10946;BME280;5525;42.648;23.368;2022-08-30T02:12:16;94808.72;;;18.39;100.00
10946;BME280;5525;42.648;23.368;2022-08-30T02:14:42;94819.81;;;18.50;100.00
10946;BME280;5525;42.648;23.368;2022-08-30T02:17:13;94770.84;;;18.15;100.00
10946;BME280;5525;42.648;23.368;2022-08-30T02:19:41;94784.28;;;18.23;100.00
10946;BME280;5525;42.648;23.368;2022-08-30T02:22:08;94772.38;;;18.12;100.00
10946;BME280;5525;42.648;23.368;2022-08-30T02:24:35;94811.06;;;18.40;100.00
10946;BME280;5525;42.648;23.368;2022-08-30T02:27:03;94807.97;;;18.42;100.00
10946;BME280;5525;42.648;23.368;2022-08-30T02:29:30;94807.19;;;18.41;100.00
10946;BME280;5525;42.648;23.368;2022-08-30T02:31:57;94795.34;;;18.34;100.00
10946;BME280;5525;42.648;23.368;2022-08-30T02:34:26;94814.00;;;18.28;100.00
10946;BME280;5525;42.648;23.368;2022-08-30T02:36:53;94776.63;;;18.10;100.00
10946;BME280;5525;42.648;23.368;2022-08-30T02:39:20;94786.94;;;18.20;100.00
10946;BME280;5525;42.648;23.368;2022-08-30T02:41:46;94810.16;;;18.33;100.00
10946;BME280;5525;42.648;23.368;2022-08-30T02:44:13;94809.75;;;18.31;100.00
10946;BME280;5525;42.648;23.368;2022-08-30T02:46:40;94806.34;;;18.37;100.00
10946;BME280;5525;42.648;23.368;2022-08-30T02:49:07;94795.44;;;18.15;100.00
10946;BME280;5525;42.648;23.368;2022-08-30T02:51:36;94796.19;;;18.12;100.00
10946;BME280;5525;42.648;23.368;2022-08-30T02:54:04;94788.56;;;17.98;100.00
10946;BME280;5525;42.648;23.368;2022-08-30T02:56:31;94783.97;;;17.80;100.00
10946;BME280;5525;42.648;23.368;2022-08-30T02:58:58;94787.22;;;17.63;100.00
10946;BME280;5525;42.648;23.368;2022-08-30T03:01:25;94787.28;;;17.66;100.00
10946;BME280;5525;42.648;23.368;2022-08-30T03:03:53;94802.38;;;17.83;100.00
10946;BME280;5525;42.648;23.368;2022-08-30T03:06:21;94804.78;;;17.88;100.00
10946;BME280;5525;42.648;23.368;2022-08-30T03:08:51;94808.44;;;17.95;100.00
10946;BME280;5525;42.648;23.368;2022-08-30T03:11:18;94793.13;;;17.91;100.00
10946;BME280;5525;42.648;23.368;2022-08-30T03:13:46;94809.38;;;18.06;100.00
10946;BME280;5525;42.648;23.368;2022-08-30T03:16:13;94804.16;;;17.98;100.00
10946;BME280;5525;42.648;23.368;2022-08-30T03:18:40;94813.38;;;18.12;100.00
10946;BME280;5525;42.648;23.368;2022-08-30T03:21:09;94814.06;;;18.06;100.00
10946;BME280;5525;42.648;23.368;2022-08-30T03:23:36;94815.09;;;18.24;100.00
10946;BME280;5525;42.648;23.368;2022-08-30T03:26:06;94804.09;;;18.17;100.00
10946;BME280;5525;42.648;23.368;2022-08-30T03:28:34;94804.47;;;17.93;100.00
10946;BME280;5525;42.648;23.368;2022-08-30T03:31:01;94807.75;;;17.79;100.00
10946;BME280;5525;42.648;23.368;2022-08-30T03:33:29;94805.06;;;17.57;100.00
10946;BME280;5525;42.648;23.368;2022-08-30T03:35:58;94770.81;;;17.40;100.00
10946;BME280;5525;42.648;23.368;2022-08-30T03:38:25;94820.34;;;17.61;100.00
10946;BME280;5525;42.648;23.368;2022-08-30T03:40:52;94817.84;;;17.75;100.00
10946;BME280;5525;42.648;23.368;2022-08-30T03:43:20;94819.78;;;17.52;100.00
10946;BME280;5525;42.648;23.368;2022-08-30T03:45:48;94745.97;;;17.04;100.00
10946;BME280;5525;42.648;23.368;2022-08-30T03:48:16;94790.56;;;17.53;100.00
10946;BME280;5525;42.648;23.368;2022-08-30T03:50:43;94807.16;;;17.67;100.00
10946;BME280;5525;42.648;23.368;2022-08-30T03:53:10;94798.38;;;17.77;100.00
10946;BME280;5525;42.648;23.368;2022-08-30T03:55:37;94819.22;;;17.88;100.00
10946;BME280;5525;42.648;23.368;2022-08-30T03:58:04;94813.22;;;17.79;100.00
10946;BME280;5525;42.648;23.368;2022-08-30T04:00:32;94826.31;;;17.93;100.00
10946;BME280;5525;42.648;23.368;2022-08-30T04:03:00;94822.09;;;17.95;100.00
10946;BME280;5525;42.648;23.368;2022-08-30T04:05:27;94824.75;;;17.92;100.00
10946;BME280;5525;42.648;23.368;2022-08-30T04:07:54;94821.97;;;17.88;100.00
10946;BME280;5525;42.648;23.368;2022-08-30T04:10:21;94820.75;;;17.86;100.00
10946;BME280;5525;42.648;23.368;2022-08-30T04:12:48;94828.22;;;17.89;100.00
10946;BME280;5525;42.648;23.368;2022-08-30T04:15:17;94814.75;;;17.77;100.00
10946;BME280;5525;42.648;23.368;2022-08-30T04:17:46;94794.47;;;17.78;100.00
10946;BME280;5525;42.648;23.368;2022-08-30T04:20:14;94837.09;;;18.05;100.00
10946;BME280;5525;42.648;23.368;2022-08-30T04:22:41;94833.63;;;18.08;100.00
10946;BME280;5525;42.648;23.368;2022-08-30T04:25:09;94840.06;;;18.22;100.00
10946;BME280;5525;42.648;23.368;2022-08-30T04:27:36;94788.56;;;17.98;100.00
10946;BME280;5525;42.648;23.368;2022-08-30T04:30:04;94830.22;;;18.40;100.00
10946;BME280;5525;42.648;23.368;2022-08-30T04:32:33;94826.81;;;18.47;100.00
10946;BME280;5525;42.648;23.368;2022-08-30T04:35:01;94836.56;;;18.74;100.00
10946;BME280;5525;42.648;23.368;2022-08-30T04:37:28;94837.06;;;18.83;100.00
10946;BME280;5525;42.648;23.368;2022-08-30T04:39:55;94836.03;;;18.95;100.00
10946;BME280;5525;42.648;23.368;2022-08-30T04:42:25;94836.13;;;19.02;100.00
10946;BME280;5525;42.648;23.368;2022-08-30T04:44:52;94799.75;;;18.68;100.00
10946;BME280;5525;42.648;23.368;2022-08-30T04:47:19;94816.69;;;18.77;100.00
10946;BME280;5525;42.648;23.368;2022-08-30T04:49:46;94844.25;;;18.95;100.00
10946;BME280;5525;42.648;23.368;2022-08-30T04:52:15;94853.81;;;19.08;100.00
10946;BME280;5525;42.648;23.368;2022-08-30T04:54:42;94828.94;;;18.90;100.00
10946;BME280;5525;42.648;23.368;2022-08-30T04:57:10;94845.84;;;18.66;100.00
10946;BME280;5525;42.648;23.368;2022-08-30T04:59:38;94823.19;;;18.39;100.00
10946;BME280;5525;42.648;23.368;2022-08-30T05:02:05;94810.13;;;18.56;100.00
10946;BME280;5525;42.648;23.368;2022-08-30T05:04:46;94802.56;;;18.45;100.00
10946;BME280;5525;42.648;23.368;2022-08-30T05:07:30;94871.22;;;18.96;100.00
10946;BME280;5525;42.648;23.368;2022-08-30T05:10:00;94826.75;;;18.70;100.00
10946;BME280;5525;42.648;23.368;2022-08-30T05:12:28;94833.78;;;18.71;100.00
10946;BME280;5525;42.648;23.368;2022-08-30T05:14:55;94850.50;;;18.95;100.00
10946;BME280;5525;42.648;23.368;2022-08-30T05:17:24;94878.47;;;19.11;100.00
10946;BME280;5525;42.648;23.368;2022-08-30T05:19:51;94861.66;;;19.09;100.00
10946;BME280;5525;42.648;23.368;2022-08-30T05:22:18;94874.09;;;19.03;100.00
10946;BME280;5525;42.648;23.368;2022-08-30T05:24:48;94884.91;;;19.26;100.00
10946;BME280;5525;42.648;23.368;2022-08-30T05:27:15;94885.91;;;19.40;100.00
10946;BME280;5525;42.648;23.368;2022-08-30T05:29:43;94862.66;;;19.27;100.00
10946;BME280;5525;42.648;23.368;2022-08-30T05:32:10;94854.56;;;19.38;100.00
10946;BME280;5525;42.648;23.368;2022-08-30T05:34:39;94886.09;;;19.58;100.00
10946;BME280;5525;42.648;23.368;2022-08-30T05:37:07;94855.81;;;19.44;100.00
10946;BME280;5525;42.648;23.368;2022-08-30T05:39:34;94859.44;;;19.55;100.00
10946;BME280;5525;42.648;23.368;2022-08-30T05:44:36;94854.94;;;19.73;100.00
10946;BME280;5525;42.648;23.368;2022-08-30T05:47:04;94835.75;;;19.69;100.00
10946;BME280;5525;42.648;23.368;2022-08-30T05:49:33;94806.38;;;19.70;100.00
10946;BME280;5525;42.648;23.368;2022-08-30T05:52:00;94879.31;;;20.25;100.00
10946;BME280;5525;42.648;23.368;2022-08-30T05:54:27;94883.59;;;20.19;100.00
10946;BME280;5525;42.648;23.368;2022-08-30T05:56:54;94872.03;;;19.99;100.00
10946;BME280;5525;42.648;23.368;2022-08-30T05:59:37;94880.75;;;20.12;100.00
10946;BME280;5525;42.648;23.368;2022-08-30T06:02:05;94829.47;;;19.69;100.00
10946;BME280;5525;42.648;23.368;2022-08-30T06:04:33;94887.41;;;20.11;100.00
10946;BME280;5525;42.648;23.368;2022-08-30T06:07:01;94888.56;;;20.10;100.00
10946;BME280;5525;42.648;23.368;2022-08-30T06:09:34;94893.53;;;19.97;100.00
10946;BME280;5525;42.648;23.368;2022-08-30T06:12:12;94891.53;;;19.91;100.00
10946;BME280;5525;42.648;23.368;2022-08-30T06:14:42;94896.88;;;19.44;100.00
10946;BME280;5525;42.648;23.368;2022-08-30T06:17:09;94853.63;;;18.94;100.00
10946;BME280;5525;42.648;23.368;2022-08-30T06:19:37;94896.75;;;19.33;100.00
10946;BME280;5525;42.648;23.368;2022-08-30T06:22:06;94851.94;;;18.86;100.00
10946;BME280;5525;42.648;23.368;2022-08-30T06:24:36;94849.34;;;18.96;100.00
10946;BME280;5525;42.648;23.368;2022-08-30T06:27:11;94888.41;;;19.56;100.00
10946;BME280;5525;42.648;23.368;2022-08-30T06:29:51;94866.69;;;19.73;100.00
10946;BME280;5525;42.648;23.368;2022-08-30T06:32:19;94912.84;;;20.52;100.00
10946;BME280;5525;42.648;23.368;2022-08-30T06:34:46;94903.47;;;21.10;100.00
10946;BME280;5525;42.648;23.368;2022-08-30T06:37:15;94906.13;;;21.75;100.00
10946;BME280;5525;42.648;23.368;2022-08-30T06:39:46;94868.81;;;21.78;100.00
10946;BME280;5525;42.648;23.368;2022-08-30T06:42:15;94886.91;;;21.89;100.00
10946;BME280;5525;42.648;23.368;2022-08-30T06:44:42;94844.03;;;21.70;100.00
10946;BME280;5525;42.648;23.368;2022-08-30T06:47:11;94900.69;;;22.14;100.00
10946;BME280;5525;42.648;23.368;2022-08-30T06:49:38;94909.66;;;21.79;100.00
10946;BME280;5525;42.648;23.368;2022-08-30T06:52:05;94897.16;;;22.03;100.00
10946;BME280;5525;42.648;23.368;2022-08-30T06:54:32;94914.47;;;22.45;100.00
10946;BME280;5525;42.648;23.368;2022-08-30T06:56:59;94901.94;;;22.72;100.00
10946;BME280;5525;42.648;23.368;2022-08-30T06:59:27;94874.78;;;22.39;100.00
10946;BME280;5525;42.648;23.368;2022-08-30T07:01:54;94894.00;;;21.97;100.00
10946;BME280;5525;42.648;23.368;2022-08-30T07:04:24;94901.09;;;22.12;100.00
10946;BME280;5525;42.648;23.368;2022-08-30T07:06:51;94901.09;;;22.47;100.00
10946;BME280;5525;42.648;23.368;2022-08-30T07:09:20;94914.50;;;22.87;100.00
10946;BME280;5525;42.648;23.368;2022-08-30T07:11:47;94917.25;;;22.84;100.00
10946;BME280;5525;42.648;23.368;2022-08-30T07:14:14;94909.78;;;22.63;100.00
10946;BME280;5525;42.648;23.368;2022-08-30T07:16:42;94869.25;;;22.25;100.00
10946;BME280;5525;42.648;23.368;2022-08-30T07:19:09;94921.97;;;22.45;100.00
10946;BME280;5525;42.648;23.368;2022-08-30T07:24:24;94897.19;;;22.66;100.00
10946;BME280;5525;42.648;23.368;2022-08-30T07:26:51;94925.91;;;22.65;100.00
10946;BME280;5525;42.648;23.368;2022-08-30T07:29:18;94900.31;;;22.40;100.00
10946;BME280;5525;42.648;23.368;2022-08-30T07:31:45;94929.44;;;22.65;100.00
10946;BME280;5525;42.648;23.368;2022-08-30T07:34:12;94923.53;;;22.53;100.00
10946;BME280;5525;42.648;23.368;2022-08-30T07:36:39;94903.06;;;22.29;100.00
10946;BME280;5525;42.648;23.368;2022-08-30T07:39:06;94908.56;;;22.47;100.00
10946;BME280;5525;42.648;23.368;2022-08-30T07:41:36;94920.03;;;22.52;100.00
10946;BME280;5525;42.648;23.368;2022-08-30T07:44:08;94921.06;;;21.81;100.00
10946;BME280;5525;42.648;23.368;2022-08-30T07:46:36;94921.91;;;22.10;100.00
10946;BME280;5525;42.648;23.368;2022-08-30T07:49:04;94931.28;;;21.84;100.00
10946;BME280;5525;42.648;23.368;2022-08-30T07:51:31;94900.94;;;21.66;100.00
10946;BME280;5525;42.648;23.368;2022-08-30T07:53:58;94939.38;;;21.56;100.00
10946;BME280;5525;42.648;23.368;2022-08-30T07:56:26;94935.13;;;21.69;100.00
10946;BME280;5525;42.648;23.368;2022-08-30T07:58:56;94937.03;;;21.51;100.00
10946;BME280;5525;42.648;23.368;2022-08-30T08:01:23;94933.69;;;21.17;100.00
10946;BME280;5525;42.648;23.368;2022-08-30T08:03:51;94891.03;;;20.73;100.00
10946;BME280;5525;42.648;23.368;2022-08-30T08:06:20;94929.56;;;20.87;100.00
10946;BME280;5525;42.648;23.368;2022-08-30T08:08:47;94901.88;;;20.52;100.00
10946;BME280;5525;42.648;23.368;2022-08-30T08:11:17;94958.56;;;20.84;100.00
10946;BME280;5525;42.648;23.368;2022-08-30T08:13:45;94953.16;;;20.95;100.00
10946;BME280;5525;42.648;23.368;2022-08-30T08:16:14;94876.44;;;20.58;100.00
10946;BME280;5525;42.648;23.368;2022-08-30T08:18:46;94903.06;;;20.51;100.00
10946;BME280;5525;42.648;23.368;2022-08-30T08:21:14;94953.88;;;20.88;100.00
10946;BME280;5525;42.648;23.368;2022-08-30T08:23:42;94925.59;;;20.81;100.00
10946;BME280;5525;42.648;23.368;2022-08-30T08:26:09;94896.47;;;20.62;100.00
10946;BME280;5525;42.648;23.368;2022-08-30T08:28:39;94881.50;;;20.53;100.00
10946;BME280;5525;42.648;23.368;2022-08-30T08:31:14;94951.13;;;20.88;100.00
10946;BME280;5525;42.648;23.368;2022-08-30T08:33:41;94948.75;;;20.80;100.00
10946;BME280;5525;42.648;23.368;2022-08-30T08:36:09;94953.44;;;20.79;100.00
10946;BME280;5525;42.648;23.368;2022-08-30T08:38:36;94957.84;;;20.94;100.00
10946;BME280;5525;42.648;23.368;2022-08-30T08:41:07;94933.59;;;20.96;100.00
10946;BME280;5525;42.648;23.368;2022-08-30T08:43:37;94926.38;;;20.78;100.00
10946;BME280;5525;42.648;23.368;2022-08-30T08:46:09;94952.03;;;20.99;100.00
10946;BME280;5525;42.648;23.368;2022-08-30T08:48:43;94945.81;;;21.06;100.00
10946;BME280;5525;42.648;23.368;2022-08-30T08:51:13;94951.03;;;21.28;100.00
10946;BME280;5525;42.648;23.368;2022-08-30T08:54:01;94900.94;;;21.63;100.00
10946;BME280;5525;42.648;23.368;2022-08-30T08:56:31;94891.28;;;22.29;100.00
10946;BME280;5525;42.648;23.368;2022-08-30T08:58:59;94931.31;;;23.46;100.00
10946;BME280;5525;42.648;23.368;2022-08-30T09:01:28;94912.38;;;24.30;100.00
10946;BME280;5525;42.648;23.368;2022-08-30T09:04:02;94928.84;;;27.06;90.85
10946;BME280;5525;42.648;23.368;2022-08-30T09:06:44;94943.16;;;30.56;62.36
10946;BME280;5525;42.648;23.368;2022-08-30T09:09:15;94938.72;;;32.32;48.17
10946;BME280;5525;42.648;23.368;2022-08-30T09:11:45;94914.03;;;31.88;48.94
10946;BME280;5525;42.648;23.368;2022-08-30T09:14:16;94938.53;;;32.27;47.83
10946;BME280;5525;42.648;23.368;2022-08-30T09:16:52;94916.63;;;31.82;50.27
10946;BME280;5525;42.648;23.368;2022-08-30T09:19:34;94951.00;;;32.87;50.54
10946;BME280;5525;42.648;23.368;2022-08-30T09:22:05;94955.47;;;36.37;40.27
10946;BME280;5525;42.648;23.368;2022-08-30T09:24:40;94962.78;;;40.40;31.75
10946;BME280;5525;42.648;23.368;2022-08-30T09:27:17;94965.59;;;40.29;30.32
10946;BME280;5525;42.648;23.368;2022-08-30T09:30:00;94972.09;;;40.57;29.87
10946;BME280;5525;42.648;23.368;2022-08-30T09:32:32;94908.16;;;38.54;31.54
10946;BME280;5525;42.648;23.368;2022-08-30T09:35:03;94910.53;;;39.29;31.07
10946;BME280;5525;42.648;23.368;2022-08-30T09:37:36;94910.63;;;40.91;27.69
10946;BME280;5525;42.648;23.368;2022-08-30T09:40:13;94961.47;;;43.10;25.98
10946;BME280;5525;42.648;23.368;2022-08-30T09:42:41;94945.28;;;42.94;24.68
10946;BME280;5525;42.648;23.368;2022-08-30T09:45:29;94951.56;;;41.50;25.30
10946;BME280;5525;42.648;23.368;2022-08-30T09:47:57;94938.81;;;42.01;24.25
10946;BME280;5525;42.648;23.368;2022-08-30T09:50:31;94962.75;;;42.68;24.35
10946;BME280;5525;42.648;23.368;2022-08-30T09:53:05;94954.66;;;41.08;26.18
10946;BME280;5525;42.648;23.368;2022-08-30T09:55:48;94949.25;;;39.49;28.24
10946;BME280;5525;42.648;23.368;2022-08-30T09:58:36;94939.47;;;41.50;26.91
10946;BME280;5525;42.648;23.368;2022-08-30T10:01:10;94942.66;;;39.68;28.06
10946;BME280;5525;42.648;23.368;2022-08-30T10:03:43;94934.84;;;39.10;28.62
10946;BME280;5525;42.648;23.368;2022-08-30T10:06:25;94946.56;;;41.95;25.29
10946;BME280;5525;42.648;23.368;2022-08-30T10:09:00;94923.19;;;40.51;27.01
10946;BME280;5525;42.648;23.368;2022-08-30T10:11:35;94917.78;;;39.78;28.74
10946;BME280;5525;42.648;23.368;2022-08-30T10:14:30;94918.19;;;40.18;27.17
10946;BME280;5525;42.648;23.368;2022-08-30T10:17:07;94909.34;;;40.86;26.42
10946;BME280;5525;42.648;23.368;2022-08-30T10:19:48;94912.69;;;42.60;24.48
10946;BME280;5525;42.648;23.368;2022-08-30T10:22:23;94906.78;;;41.16;25.32
10946;BME280;5525;42.648;23.368;2022-08-30T10:25:01;94895.47;;;37.99;28.65
10946;BME280;5525;42.648;23.368;2022-08-30T10:27:35;94871.19;;;39.20;27.71
10946;BME280;5525;42.648;23.368;2022-08-30T10:30:06;94897.22;;;40.80;26.73
10946;BME280;5525;42.648;23.368;2022-08-30T10:32:38;94906.75;;;41.32;25.93
10946;BME280;5525;42.648;23.368;2022-08-30T10:35:09;94877.31;;;40.25;26.81
10946;BME280;5525;42.648;23.368;2022-08-30T10:37:49;94838.31;;;38.81;27.31
10946;BME280;5525;42.648;23.368;2022-08-30T10:40:23;94891.78;;;39.68;28.13
10946;BME280;5525;42.648;23.368;2022-08-30T10:43:20;94878.41;;;41.27;25.32
10946;BME280;5525;42.648;23.368;2022-08-30T10:45:49;94896.34;;;40.19;26.36
10946;BME280;5525;42.648;23.368;2022-08-30T10:48:23;94890.09;;;39.93;26.63
10946;BME280;5525;42.648;23.368;2022-08-30T10:50:54;94874.31;;;40.78;26.26
10946;BME280;5525;42.648;23.368;2022-08-30T10:53:30;94887.09;;;40.24;26.10
10946;BME280;5525;42.648;23.368;2022-08-30T10:56:01;94848.06;;;37.37;29.28
10946;BME280;5525;42.648;23.368;2022-08-30T10:58:30;94870.69;;;37.22;30.24
10946;BME280;5525;42.648;23.368;2022-08-30T11:01:13;94850.25;;;37.28;29.36
10946;BME280;5525;42.648;23.368;2022-08-30T11:04:28;94880.72;;;39.23;27.15
10946;BME280;5525;42.648;23.368;2022-08-30T11:07:08;94881.22;;;37.28;29.16
10946;BME280;5525;42.648;23.368;2022-08-30T11:09:52;94868.03;;;35.59;31.42
10946;BME280;5525;42.648;23.368;2022-08-30T11:12:32;94856.44;;;33.85;34.47
10946;BME280;5525;42.648;23.368;2022-08-30T11:15:12;94808.44;;;32.75;35.35
10946;BME280;5525;42.648;23.368;2022-08-30T11:17:44;94862.44;;;32.93;35.46
10946;BME280;5525;42.648;23.368;2022-08-30T11:20:27;94850.47;;;32.53;35.31
10946;BME280;5525;42.648;23.368;2022-08-30T11:23:29;94846.75;;;32.25;34.65
10946;BME280;5525;42.648;23.368;2022-08-30T11:26:01;94843.31;;;32.21;35.57
10946;BME280;5525;42.648;23.368;2022-08-30T11:29:00;94841.63;;;32.54;34.12
10946;BME280;5525;42.648;23.368;2022-08-30T11:31:33;94839.78;;;33.81;31.93
10946;BME280;5525;42.648;23.368;2022-08-30T11:34:01;94849.81;;;34.75;30.08
10946;BME280;5525;42.648;23.368;2022-08-30T11:40:04;94842.41;;;38.48;24.95
10946;BME280;5525;42.648;23.368;2022-08-30T11:42:40;94842.94;;;38.52;23.64
10946;BME280;5525;42.648;23.368;2022-08-30T11:48:43;94832.69;;;37.18;26.41
10946;BME280;5525;42.648;23.368;2022-08-30T11:51:48;94835.75;;;37.35;26.55
10946;BME280;5525;42.648;23.368;2022-08-30T11:54:30;94838.44;;;36.60;27.58
10946;BME280;5525;42.648;23.368;2022-08-30T11:57:05;94809.41;;;36.83;26.97
10946;BME280;5525;42.648;23.368;2022-08-30T11:59:47;94825.47;;;36.97;27.30
10946;BME280;5525;42.648;23.368;2022-08-30T12:02:47;94814.63;;;36.90;27.20
10946;BME280;5525;42.648;23.368;2022-08-30T12:05:54;94823.97;;;36.81;26.30
10946;BME280;5525;42.648;23.368;2022-08-30T12:08:55;94812.91;;;36.00;27.28
10946;BME280;5525;42.648;23.368;2022-08-30T12:11:52;94807.53;;;34.87;28.74
10946;BME280;5525;42.648;23.368;2022-08-30T12:14:41;94801.34;;;35.21;28.45
10946;BME280;5525;42.648;23.368;2022-08-30T12:17:21;94789.59;;;34.61;29.33
10946;BME280;5525;42.648;23.368;2022-08-30T12:20:14;94791.47;;;35.11;28.53
10946;BME280;5525;42.648;23.368;2022-08-30T12:22:44;94792.94;;;34.33;29.65
10946;BME280;5525;42.648;23.368;2022-08-30T12:25:18;94783.75;;;33.81;30.50
10946;BME280;5525;42.648;23.368;2022-08-30T12:27:45;94785.34;;;33.01;32.22
10946;BME280;5525;42.648;23.368;2022-08-30T12:30:14;94778.13;;;32.73;32.13
10946;BME280;5525;42.648;23.368;2022-08-30T12:32:49;94763.22;;;32.67;32.85
10946;BME280;5525;42.648;23.368;2022-08-30T12:35:21;94734.47;;;32.18;33.40
10946;BME280;5525;42.648;23.368;2022-08-30T12:37:58;94764.13;;;31.85;34.21
10946;BME280;5525;42.648;23.368;2022-08-30T12:40:27;94720.41;;;31.39;34.47
10946;BME280;5525;42.648;23.368;2022-08-30T12:42:57;94757.84;;;31.07;35.56
10946;BME280;5525;42.648;23.368;2022-08-30T12:45:28;94754.28;;;31.50;35.57
10946;BME280;5525;42.648;23.368;2022-08-30T12:47:58;94765.97;;;31.57;35.04
10946;BME280;5525;42.648;23.368;2022-08-30T12:50:28;94756.97;;;30.97;35.92
10946;BME280;5525;42.648;23.368;2022-08-30T12:52:57;94750.13;;;30.30;37.35
10946;BME280;5525;42.648;23.368;2022-08-30T12:55:28;94747.22;;;30.09;38.25
10946;BME280;5525;42.648;23.368;2022-08-30T12:57:59;94741.88;;;30.27;39.07
10946;BME280;5525;42.648;23.368;2022-08-30T13:00:30;94734.94;;;30.06;39.34
10946;BME280;5525;42.648;23.368;2022-08-30T13:03:01;94716.31;;;29.53;39.99
10946;BME280;5525;42.648;23.368;2022-08-30T13:05:39;94755.50;;;29.58;40.37
10946;BME280;5525;42.648;23.368;2022-08-30T13:08:11;94762.09;;;28.95;41.99
10946;BME280;5525;42.648;23.368;2022-08-30T13:10:49;94762.06;;;28.66;42.25
10946;BME280;5525;42.648;23.368;2022-08-30T13:13:27;94740.31;;;28.77;42.97
10946;BME280;5525;42.648;23.368;2022-08-30T13:16:04;94755.59;;;28.57;43.56
10946;BME280;5525;42.648;23.368;2022-08-30T13:18:31;94755.75;;;28.50;45.25
10946;BME280;5525;42.648;23.368;2022-08-30T13:21:20;94751.84;;;27.99;46.15
10946;BME280;5525;42.648;23.368;2022-08-30T13:23:47;94715.59;;;27.54;45.40
10946;BME280;5525;42.648;23.368;2022-08-30T13:26:15;94746.69;;;27.81;45.35